Main page
METAR-TAF:

METAR-TAF

Airports :

N'Djamena, Chad

N'Djamena International Airport

latitude: 12-08N, longitude: 015-02E, elevation: 295 m

Current weather observation

The report was made 34 minutes ago, at 22:00 UTC
Wind 4 kt from the West
Temperature 32°C
Humidity 34%
Pressure 1008 hPa
Visibility 10 km or more
no clouds below 1500 m and no cumulonimbus

METAR: FTTJ 272200Z 26004KT CAVOK 32/14 Q1008 NOSIG

Time: 23:34 (22:34 UTC)

Forecast

The report was made 5 hours and 34 minutes ago, at 17:00 UTC
Forecast valid from 27 at 18 UTC to 28 at 24 UTC
Wind 6 kt from the East/Northeast
Visibility: 8000 m
Becoming
from 28 at 08 UTC to 28 at 10 UTC
Wind 10 kt from the West/Southwest
Probability 30% :
Temporary
from 28 at 15 UTC to 28 at 20 UTC
thunderstorm

TAF: FTTJ 271700Z 2718/2824 06006KT 8000 NSC BECMG 2808/2810 24010KT PROB30 TEMPO 2815/2820 TS

Weather observations and forecasts of more than 4000 airports (METAR and TAF reports).

The available stations are represented by yellow and red dots on the map.

Hover mouse over dot to see the name of the station.

Then click to see weather observations and forecasts.

To change the map : click on the green buttons with a black cross to zoom in, on the green button with a dash to zoom out, or on the green arrows for adjacent maps.


METAR-TAF: